Impacts TAF Board
For situational awareness. Not to be used for flight planning purposes.
IDs:

KBHM - Birmingham Intl, AL, US

Issued at 1739 UTC 12 Dec 2018
Updated at 1819 UTC 12 Dec 2018
Potential Impact None Slight Moderate High
Time1753Z 12/19Z 12/20Z 12/21Z 12/22Z 12/23Z 13/00Z 13/01Z 13/02Z 13/03Z 13/04Z 13/05Z 13/06Z 13/07Z>>
Type OBS PRVL PRVL PRVL PRVL PRVL PRVL PRVL PRVL PRVL PRVL PRVL PRVL PRVL
VIS 10 >6 >6 >6 >6 >6 >6 >6 >6 >6 >6 >6 >6 >6
CIG 250 250 250 250 250 250 250 250 250 250 250 250 250 250
Cover OVC OVC OVC OVC OVC OVC OVC OVC OVC OVC OVC OVC OVC OVC
FltCat VFR VFR VFR VFR VFR VFR VFR VFR VFR VFR VFR VFR VFR VFR
WX -- -- -- -- -- -- -- -- -- -- -- -- -- --
WDir 210 220 220 220 220 220 160 160 160 160 160 160 160 160
WSpd 6 10 10 10 10 10 4 4 4 4 4 4 4 4
WGst -- -- -- -- -- -- -- -- -- -- -- -- -- --
Raw TAF
KBHM 121739Z 1218/1318 22010KT P6SM OVC250
  FM130000 16004KT P6SM OVC250
  FM131200 12008KT P6SM OVC050


Raw METAR
KBHM 121753Z 21006KT 10SM OVC250 11/M03 A3023 RMK AO2 SLP238 T01061028 10106 21011 58016
KBHM 121653Z 23008KT 10SM OVC250 10/M03 A3025 RMK AO2 SLP247 T01001028
KBHM 121553Z COR 22007KT 10SM OVC250 09/M01 A3028 RMK AO2 SLP257 T00891011

METAR Board
Radar Display
Forecast Discussion
For situational awareness. Not to be used for flight planning purposes.